CheckWX is a tool to help pilots better visualize weather data.  It is not intended as a substitute for an official pre-flight weather briefing.

12:44:03 UTC

KAZO METAR
Kalamazoo / Battle Creek International Airport
Kalamazoo, Michigan, USA
Current

20 mins ago

KAZO 181224Z 02007KT 5SM -SN BKN031 OVC075 M07/M10 A3009 RMK AO2 P0000 T10721100
Observed
Feb-18 @ 12:24 UTC
Wind
  • 020° at 7 KTS
Visibility
5 SM
Flight Rules
MVFR
Conditions
Light Snow
Cloud Levels
  • Broken at 3,100' AGL
  • Overcast at 7,500' AGL
Temperature
-7°C / 19°F
Dewpoint
-10°C / 14°F
Humidity
79%
Altimeter
30.09" Hg
Pressure
1018.92 hPa
Current Rain
0.01"
Previous

51 mins ago

KAZO 181153Z 02004KT 2 1/2SM -SN OVC025 M07/M09 A3008 RMK AO2 SLP199 P0000 60000 70001 T10671094 11056 21067 53028
Observed
Feb-18 @ 11:53 UTC
Wind
  • 020° at 4 KTS
Visibility
2 1/2 SM
Flight Rules
IFR
Conditions
Light Snow
Cloud Levels
  • Overcast at 2,500' AGL
Temperature
-7°C / 19°F
Dewpoint
-9°C / 16°F
Humidity
86%
Altimeter
30.08" Hg
Pressure
1019.9 hPa
Current Rain
0.01"
Previous

1 hour ago

KAZO 181116Z 01007KT 2 1/2SM -SN BR FEW011 OVC032 M07/M09 A3006 RMK AO2 P0000 T10671089
Observed
Feb-18 @ 11:16 UTC
Wind
  • 010° at 7 KTS
Visibility
2 1/2 SM
Flight Rules
IFR
Conditions
Light Snow, Mist
Cloud Levels
  • Few at 1,100' AGL
  • Overcast at 3,200' AGL
Temperature
-7°C / 19°F
Dewpoint
-9°C / 16°F
Humidity
86%
Altimeter
30.06" Hg
Pressure
1017.92 hPa
Current Rain
0.01"